Route Details

Aircraft Information
Group: European Fleet
Types: A30F, B738
Route Data
Distance: 517nm
Duration: 1h 30m
Origin METAR: EIDW 260230Z 14007KT 100V170 9999 -RA FEW008 SCT011 BKN028 10/09 Q1009 TEMPO BKN012
Dest. METAR: EDDK 260220Z AUTO 06003KT CAVOK 10/10 Q1017 NOSIG
Freight Data
(for May 26, 2024)
Load Factor:
60%
Manifested Cargo: 49,310lbs
Financial History
Total Freight: 395,379lbs
Average Load: 0lbs/flt
Fuel Used: 131,057lbs
Avg. Fuel Used: 0lbs/flt
Fuel Expense: $59,166
Avg. Fuel Expense: $0
Avg. Fuel Cost: $0/lbs
Total Gross Income: $886,096
Pilot Pay: $2,251
Total Expenses: $180,629
Total Revenue: $641,370
Average Revenue: $0

Capitol Logistics 534




EIDW
Dublin Airport
Dublin, IE
EDDK
Cologne Bonn Airport
Cologne, DE